Flight Track Log - Related Links

Times and Time Zones

All times are in EDT time to prevent confusion due to time zone crossing. See the TCF6008 flight status page for this flight to view local times or setup timezone preferences in your user account.

Time Position Orientation Groundspeed Altitude Reporting Facility
EDT Latitude Longitude Course Direction KTS MPH feet Rate Location/Type
Sun 02:37:53 PM 40.7344 -73.8303 270° West 166 191 2,200  Level New York Center
Sun 02:38:50 PM 40.7000 -73.8667 219° Southwest 224 258 5,300 2,797 Climbing New York TRACON
Sun 02:39:51 PM 40.7500 -73.9167 323° Northwest 254 292 7,700 2,777 Climbing New York TRACON
Sun 02:40:00 PM 40.5983 -74.3719 246° West  Level FlightAware Approximate
Sun 02:40:51 PM 40.8167 -73.9500 339° North 261 300 10,900  Level New York TRACON
Sun 02:41:00 PM 40.5556 -74.4999 246° West  Level FlightAware Approximate
Sun 02:41:56 PM 40.7833 -74.0833 252° West 335 386 12,300  Level New York TRACON
Sun 02:42:00 PM 40.5274 -74.6315 242° Southwest  Level FlightAware Approximate
Sun 02:42:57 PM 40.7500 -74.2000 249° West 369 425 14,900  Level New York TRACON
Sun 02:43:00 PM 40.4833 -74.7557 270° West  Level FlightAware Approximate
Sun 02:44:52 PM 40.6531 -74.4200 240° Southwest 371 427 16,400  Level New York Center
Sun 02:45:52 PM 40.6081 -74.5297 242° Southwest 371 427 18,500 1,934 Climbing New York Center
Sun 02:46:53 PM 40.5381 -74.6325 228° Southwest 371 427 20,300 1,785 Climbing New York Center
Sun 02:47:53 PM 40.4475 -74.7256 218° Southwest 393 452 22,100 1,736 Climbing New York Center
Sun 02:48:54 PM 40.3567 -74.8211 219° Southwest 408 470 23,800 1,664 Climbing New York Center
Sun 02:49:52 PM 40.2797 -74.9336 228° Southwest 420 483 25,400 1,475 Climbing New York Center
Sun 02:50:52 PM 40.2331 -75.0775 247° West 425 489 26,700 1,261 Climbing New York Center
Sun 02:51:51 PM 40.1858 -75.2214 247° West 430 495 27,900 1,210 Climbing New York Center
Sun 02:52:51 PM 40.1278 -75.3806 245° Southwest 442 509 29,100 1,041 Climbing New York Center
Sun 02:53:52 PM 40.0436 -75.5050 229° Southwest 447 514 30,000 738 Climbing New York Center
Sun 02:54:53 PM 39.9553 -75.6264 227° Southwest 458 527 30,600 750 Climbing New York Center
Sun 02:55:52 PM 39.8728 -75.7533 230° Southwest 464 534 31,500 908 Climbing New York Center
Sun 02:56:52 PM 39.7900 -75.8825 230° Southwest 469 540 32,400 893 Climbing New York Center
Sun 02:57:53 PM 39.7092 -76.0142 231° Southwest 469 540 33,300 848 Climbing New York Center
Sun 02:59:56 PM 39.5492 -76.2564 229° Southwest 452 520 35,000 721 Climbing Washington Center
Sun 03:00:56 PM 39.4714 -76.3792 231° Southwest 452 520 35,500 496 Climbing Washington Center
Sun 03:01:57 PM 39.3914 -76.5072 231° Southwest 452 520 36,000 248 Climbing Washington Center
Sun 03:02:57 PM 39.2986 -76.6403 228° Southwest 452 520 36,000  Level Washington Center
Sun 03:03:55 PM 39.2203 -76.7650 231° Southwest 452 520 36,000  Level Washington Center
Sun 03:04:55 PM 39.1397 -76.8894 230° Southwest 452 520 36,000  Level Washington Center
Sun 03:05:55 PM 39.0592 -77.0164 231° Southwest 457 526 36,000  Level Washington Center
Sun 03:06:56 PM 38.9661 -77.1242 222° Southwest 452 520 36,000  Level Washington Center
Sun 03:07:57 PM 38.8711 -77.2286 221° Southwest 452 520 36,000 -655 Level Washington Center
Sun 03:08:55 PM 38.7714 -77.3383 221° Southwest 463 533 34,700 -1,475 Descending Washington Center
Sun 03:09:55 PM 38.6761 -77.4397 220° Southwest 463 533 33,100 -1,537 Descending Washington Center
Sun 03:10:56 PM 38.5764 -77.5489 221° Southwest 463 533 31,600 -1,475 Descending Washington Center
Sun 03:11:57 PM 38.4786 -77.6578 221° Southwest 468 539 30,100 -807 Descending Washington Center
Sun 03:12:55 PM 38.3789 -77.7661 220° Southwest 468 539 30,000 -50 Descending Washington Center
Sun 03:13:56 PM 38.2789 -77.8744 220° Southwest 468 539 30,000  Level Washington Center
Sun 03:14:56 PM 38.1786 -77.9797 220° Southwest 463 533 30,000  Level Washington Center
Sun 03:15:57 PM 38.0786 -78.0844 220° Southwest 468 539 30,000  Level Washington Center
Sun 03:16:57 PM 37.9886 -78.1950 224° Southwest 463 533 30,000 -203 Level Washington Center
Sun 03:17:55 PM 37.9111 -78.3106 230° Southwest 465 535 29,600 -504 Descending Washington Center
Sun 03:18:56 PM 37.8269 -78.4286 228° Southwest 465 535 29,000 -298 Descending Washington Center
Sun 03:19:56 PM 37.7406 -78.5514 228° Southwest 465 535 29,000 -198 Level Washington Center
Sun 03:20:57 PM 37.6561 -78.6714 228° Southwest 465 535 28,600 -756 Descending Washington Center
Sun 03:21:55 PM 37.5631 -78.8011 228° Southwest 465 535 27,500 -1,059 Descending Washington Center
Sun 03:22:56 PM 37.4828 -78.9156 229° Southwest 459 528 26,500 -1,000 Descending Washington Center
Sun 03:23:55 PM 37.4022 -79.0297 228° Southwest 454 522 25,500 -958 Descending Washington Center
Sun 03:24:55 PM 37.3219 -79.1383 227° Southwest 448 516 24,600 -942 Descending Washington Center
Sun 03:25:56 PM 37.2558 -79.2606 236° Southwest 443 510 23,600 -984 Descending Washington Center
Sun 03:26:57 PM 37.1994 -79.3883 241° Southwest 431 496 22,600 -992 Descending Washington Center
Sun 03:27:57 PM 37.1519 -79.5033 243° Southwest 418 481 21,600 -992 Descending Washington Center
Sun 03:28:58 PM 37.1019 -79.6283 243° Southwest 413 475 20,600 -1,169 Descending Washington Center
Sun 03:29:55 PM 37.0417 -79.7450 237° Southwest 408 470 19,300 -1,744 Descending Washington Center
Sun 03:30:55 PM 36.9533 -79.8258 216° Southwest 399 459 17,200 -2,182 Descending Washington Center
Sun 03:31:56 PM 36.8589 -79.8986 212° Southwest 381 438 14,900 -2,262 Descending Washington Center
Sun 03:33:00 PM 36.7588 -79.9612 207° Southwest  Level FlightAware Approximate
Sun 03:40:00 PM 36.1013 -79.9411 180° South  Level Estimated
Sun 03:41:00 PM 36.1000 -79.9333 15° North  Level FlightAware Approximate
Sun 03:42:00 PM 36.1013 -79.9411 15° North  Level Estimated
Sun 03:43:00 PM 36.1000 -79.9333 15° North  Level FlightAware Approximate
Sun 03:44:00 PM 36.1013 -79.9411 15° North  Level Estimated
Sun 03:45:00 PM 36.1000 -79.9333 15° North  Level FlightAware Approximate
Sun 03:46:00 PM 36.1013 -79.9411 15° North  Level Estimated

Login

Don't have an account? Register now (free) for customized features, flight alerts, and more!